QFA501 YBBN-YSSY
Flight info
| Callsign | QFA501 |
|---|---|
| Flight time | 1h 29m |
| Altitude | 38000 |
| Route | SANEG H91 IGDAM H652 BOREE |
| Aircraft | B738/M-SDE2E3FGHIRWXY/LB1 |
Departure
| Time | 2026-04-25 20:05 |
|---|---|
| Airport | Brisbane International Airport (YBBN) |
Arrival
| Time | 2026-04-25 21:34 |
|---|---|
| Airport | Sydney Kingsford Smith International Airport (YSSY) |
| Time | Latitude | Longitude | Altitude | Speed | Heading |
|---|---|---|---|---|---|
| 2026-04-25 19:30 | -27.38257 | 153.12260 | 17 ft | 0 kts | 229° |
| 2026-04-25 19:47 | -27.38244 | 153.12276 | 18 ft | 3 kts | 223° |
| 2026-04-25 19:48 | -27.38225 | 153.12293 | 17 ft | 3 kts | 205° |
| 2026-04-25 19:48 | -27.38206 | 153.12298 | 18 ft | 3 kts | 155° |
| 2026-04-25 19:48 | -27.38195 | 153.12285 | 19 ft | 3 kts | 126° |
| 2026-04-25 19:48 | -27.38187 | 153.12276 | 17 ft | 0 kts | 116° |
| 2026-04-25 19:58 | -27.38194 | 153.12291 | 17 ft | 5 kts | 116° |
| 2026-04-25 19:58 | -27.38217 | 153.12343 | 17 ft | 10 kts | 117° |
| 2026-04-25 19:58 | -27.38256 | 153.12426 | 18 ft | 9 kts | 117° |
| 2026-04-25 19:59 | -27.38291 | 153.12501 | 17 ft | 12 kts | 118° |
| 2026-04-25 19:59 | -27.38297 | 153.12585 | 17 ft | 11 kts | 50° |
| 2026-04-25 19:59 | -27.38232 | 153.12630 | 17 ft | 13 kts | 27° |
| 2026-04-25 19:59 | -27.38144 | 153.12680 | 19 ft | 15 kts | 28° |
| 2026-04-25 20:00 | -27.38056 | 153.12730 | 17 ft | 16 kts | 27° |
| 2026-04-25 20:00 | -27.38024 | 153.12749 | 18 ft | 16 kts | 27° |
| 2026-04-25 20:00 | -27.37848 | 153.12850 | 17 ft | 18 kts | 27° |
| 2026-04-25 20:00 | -27.37736 | 153.12913 | 18 ft | 18 kts | 26° |
| 2026-04-25 20:01 | -27.37522 | 153.13036 | 18 ft | 17 kts | 27° |
| 2026-04-25 20:01 | -27.37421 | 153.13095 | 18 ft | 16 kts | 26° |
| 2026-04-25 20:01 | -27.37323 | 153.13150 | 18 ft | 16 kts | 26° |
| 2026-04-25 20:02 | -27.37267 | 153.13206 | 17 ft | 9 kts | 81° |
| 2026-04-25 20:02 | -27.37287 | 153.13264 | 19 ft | 8 kts | 116° |
| 2026-04-25 20:02 | -27.37313 | 153.13324 | 17 ft | 9 kts | 116° |
| 2026-04-25 20:02 | -27.37342 | 153.13387 | 18 ft | 9 kts | 129° |
| 2026-04-25 20:03 | -27.37395 | 153.13423 | 20 ft | 9 kts | 159° |
| 2026-04-25 20:03 | -27.37454 | 153.13434 | 23 ft | 9 kts | 188° |
| 2026-04-25 20:03 | -27.37511 | 153.13408 | 22 ft | 9 kts | 207° |
| 2026-04-25 20:03 | -27.37569 | 153.13372 | 21 ft | 10 kts | 207° |
| 2026-04-25 20:04 | -27.37657 | 153.13323 | 22 ft | 28 kts | 207° |
| 2026-04-25 20:04 | -27.38036 | 153.13107 | 21 ft | 95 kts | 207° |
| 2026-04-25 20:04 | -27.38805 | 153.12669 | 30 ft | 151 kts | 206° |
| 2026-04-25 20:04 | -27.39774 | 153.12084 | 523 ft | 166 kts | 210° |
| 2026-04-25 20:05 | -27.40831 | 153.11350 | 973 ft | 189 kts | 212° |
| 2026-04-25 20:05 | -27.41968 | 153.10600 | 1696 ft | 189 kts | 200° |
| 2026-04-25 20:05 | -27.43191 | 153.10398 | 2607 ft | 181 kts | 160° |
| 2026-04-25 20:05 | -27.44274 | 153.11211 | 2953 ft | 197 kts | 135° |
| 2026-04-25 20:06 | -27.45381 | 153.12194 | 3499 ft | 208 kts | 143° |
| 2026-04-25 20:06 | -27.46620 | 153.13053 | 4180 ft | 211 kts | 147° |
| 2026-04-25 20:06 | -27.47923 | 153.13846 | 4849 ft | 215 kts | 149° |
| 2026-04-25 20:06 | -27.49273 | 153.14604 | 5459 ft | 220 kts | 155° |
| 2026-04-25 20:07 | -27.50830 | 153.14744 | 5942 ft | 240 kts | 186° |
| 2026-04-25 20:07 | -27.52484 | 153.14309 | 6514 ft | 247 kts | 188° |
| 2026-04-25 20:07 | -27.54171 | 153.13872 | 7089 ft | 251 kts | 187° |
| 2026-04-25 20:07 | -27.55879 | 153.13423 | 7679 ft | 254 kts | 190° |
| 2026-04-25 20:08 | -27.57573 | 153.12794 | 8257 ft | 259 kts | 195° |
| 2026-04-25 20:08 | -27.59293 | 153.12095 | 8811 ft | 263 kts | 195° |
| 2026-04-25 20:08 | -27.61024 | 153.11396 | 9405 ft | 266 kts | 195° |
| 2026-04-25 20:08 | -27.62789 | 153.10721 | 9996 ft | 267 kts | 194° |
| 2026-04-25 20:09 | -27.64592 | 153.10113 | 10517 ft | 271 kts | 193° |
| 2026-04-25 20:09 | -27.66389 | 153.09524 | 11084 ft | 271 kts | 193° |
| 2026-04-25 20:09 | -27.68198 | 153.08930 | 11654 ft | 272 kts | 193° |
| 2026-04-25 20:09 | -27.69374 | 153.08543 | 12029 ft | 274 kts | 193° |
| 2026-04-25 20:10 | -27.71210 | 153.07935 | 12611 ft | 275 kts | 193° |
| 2026-04-25 20:10 | -27.73051 | 153.07323 | 13200 ft | 277 kts | 194° |
| 2026-04-25 20:10 | -27.74905 | 153.06705 | 13799 ft | 279 kts | 194° |
| 2026-04-25 20:10 | -27.76771 | 153.06083 | 14367 ft | 280 kts | 194° |
| 2026-04-25 20:11 | -27.78646 | 153.05456 | 14930 ft | 281 kts | 194° |
| 2026-04-25 20:11 | -27.80525 | 153.04828 | 15496 ft | 282 kts | 194° |
| 2026-04-25 20:11 | -27.82415 | 153.04172 | 16063 ft | 284 kts | 197° |
| 2026-04-25 20:11 | -27.84253 | 153.03402 | 16612 ft | 286 kts | 198° |
| 2026-04-25 20:12 | -27.86114 | 153.02576 | 17160 ft | 288 kts | 199° |
| 2026-04-25 20:12 | -27.87982 | 153.01742 | 17711 ft | 289 kts | 199° |
| 2026-04-25 20:12 | -27.89862 | 153.00905 | 18245 ft | 291 kts | 199° |
| 2026-04-25 20:12 | -27.90499 | 153.00623 | 18462 ft | 291 kts | 199° |
| 2026-04-25 20:13 | -27.93654 | 152.99232 | 19224 ft | 294 kts | 199° |
| 2026-04-25 20:13 | -27.95572 | 152.98390 | 19658 ft | 296 kts | 199° |
| 2026-04-25 20:13 | -27.97500 | 152.97544 | 20099 ft | 298 kts | 199° |
| 2026-04-25 20:13 | -27.99441 | 152.96693 | 20533 ft | 300 kts | 199° |
| 2026-04-25 20:14 | -28.01390 | 152.95838 | 20975 ft | 301 kts | 199° |
| 2026-04-25 20:14 | -28.03340 | 152.94984 | 21389 ft | 303 kts | 199° |
| 2026-04-25 20:14 | -28.05326 | 152.94113 | 21814 ft | 305 kts | 199° |
| 2026-04-25 20:14 | -28.06549 | 152.93577 | 22063 ft | 306 kts | 199° |
| 2026-04-25 20:15 | -28.08544 | 152.92702 | 22471 ft | 308 kts | 199° |
| 2026-04-25 20:15 | -28.10551 | 152.91817 | 22873 ft | 310 kts | 199° |
| 2026-04-25 20:15 | -28.12569 | 152.90921 | 23270 ft | 312 kts | 199° |
| 2026-04-25 20:15 | -28.14591 | 152.90021 | 23663 ft | 313 kts | 199° |
| 2026-04-25 20:16 | -28.16625 | 152.89115 | 24013 ft | 315 kts | 199° |
| 2026-04-25 20:16 | -28.18663 | 152.88207 | 24338 ft | 316 kts | 199° |
| 2026-04-25 20:16 | -28.20717 | 152.87291 | 24671 ft | 316 kts | 199° |
| 2026-04-25 20:16 | -28.22766 | 152.86377 | 25006 ft | 317 kts | 199° |
| 2026-04-25 20:17 | -28.24798 | 152.85471 | 25310 ft | 317 kts | 199° |
| 2026-04-25 20:17 | -28.26879 | 152.84543 | 25616 ft | 318 kts | 200° |
| 2026-04-25 20:17 | -28.28943 | 152.83621 | 25910 ft | 319 kts | 200° |
| 2026-04-25 20:17 | -28.31012 | 152.82698 | 26204 ft | 320 kts | 200° |
| 2026-04-25 20:18 | -28.33061 | 152.81783 | 26480 ft | 320 kts | 200° |
| 2026-04-25 20:18 | -28.35137 | 152.80855 | 26770 ft | 321 kts | 200° |
| 2026-04-25 20:18 | -28.37219 | 152.79924 | 27037 ft | 323 kts | 200° |
| 2026-04-25 20:18 | -28.39310 | 152.78989 | 27295 ft | 324 kts | 200° |
| 2026-04-25 20:19 | -28.41417 | 152.78047 | 27587 ft | 324 kts | 200° |
| 2026-04-25 20:19 | -28.43518 | 152.77106 | 27862 ft | 325 kts | 200° |
| 2026-04-25 20:19 | -28.45629 | 152.76161 | 28108 ft | 326 kts | 200° |
| 2026-04-25 20:19 | -28.46909 | 152.75588 | 28254 ft | 326 kts | 200° |
| 2026-04-25 20:20 | -28.49058 | 152.74625 | 28492 ft | 328 kts | 200° |
| 2026-04-25 20:20 | -28.51178 | 152.73675 | 28741 ft | 328 kts | 200° |
| 2026-04-25 20:20 | -28.53308 | 152.72719 | 28976 ft | 329 kts | 200° |
| 2026-04-25 20:20 | -28.55443 | 152.71762 | 29209 ft | 330 kts | 200° |
| 2026-04-25 20:21 | -28.57580 | 152.70803 | 29429 ft | 331 kts | 200° |
| 2026-04-25 20:21 | -28.59729 | 152.69837 | 29643 ft | 331 kts | 200° |
| 2026-04-25 20:21 | -28.61848 | 152.68885 | 29830 ft | 332 kts | 200° |
| 2026-04-25 20:21 | -28.64005 | 152.67916 | 30035 ft | 333 kts | 200° |
| 2026-04-25 20:22 | -28.66163 | 152.66946 | 30232 ft | 334 kts | 200° |
| 2026-04-25 20:22 | -28.66889 | 152.66619 | 30296 ft | 334 kts | 200° |
| 2026-04-25 20:22 | -28.70495 | 152.64996 | 30565 ft | 335 kts | 200° |
| 2026-04-25 20:22 | -28.72667 | 152.64018 | 30710 ft | 336 kts | 200° |
| 2026-04-25 20:23 | -28.74842 | 152.63038 | 30863 ft | 337 kts | 201° |
| 2026-04-25 20:23 | -28.77020 | 152.62056 | 31002 ft | 337 kts | 201° |
| 2026-04-25 20:23 | -28.79209 | 152.61070 | 31143 ft | 338 kts | 201° |
| 2026-04-25 20:23 | -28.81397 | 152.60082 | 31277 ft | 338 kts | 201° |
| 2026-04-25 20:24 | -28.85045 | 152.58418 | 31491 ft | 340 kts | 202° |
| 2026-04-25 20:24 | -28.87873 | 152.56850 | 31650 ft | 341 kts | 206° |
| 2026-04-25 20:24 | -28.88808 | 152.56295 | 31708 ft | 342 kts | 206° |
| 2026-04-25 20:25 | -28.90821 | 152.55080 | 31832 ft | 342 kts | 206° |
| 2026-04-25 20:25 | -28.92922 | 152.53805 | 31943 ft | 343 kts | 206° |
| 2026-04-25 20:25 | -28.97147 | 152.51256 | 32156 ft | 344 kts | 207° |
| 2026-04-25 20:26 | -29.01402 | 152.48709 | 32352 ft | 345 kts | 206° |
| 2026-04-25 20:26 | -29.03529 | 152.47440 | 32458 ft | 345 kts | 206° |
| 2026-04-25 20:26 | -29.05656 | 152.46171 | 32558 ft | 345 kts | 207° |
| 2026-04-25 20:27 | -29.09926 | 152.43624 | 32726 ft | 347 kts | 206° |
| 2026-04-25 20:27 | -29.12066 | 152.42348 | 32830 ft | 347 kts | 206° |
| 2026-04-25 20:27 | -29.14185 | 152.41083 | 32916 ft | 348 kts | 206° |
| 2026-04-25 20:28 | -29.18476 | 152.38521 | 33104 ft | 348 kts | 206° |
| 2026-04-25 20:28 | -29.22777 | 152.35951 | 33256 ft | 349 kts | 207° |
| 2026-04-25 20:29 | -29.27097 | 152.33366 | 33412 ft | 350 kts | 207° |
| 2026-04-25 20:29 | -29.30851 | 152.31119 | 33511 ft | 352 kts | 206° |
| 2026-04-25 20:30 | -29.34881 | 152.28703 | 33607 ft | 353 kts | 207° |
| 2026-04-25 20:30 | -29.39237 | 152.26090 | 33779 ft | 353 kts | 207° |
| 2026-04-25 20:31 | -29.43598 | 152.23472 | 33909 ft | 353 kts | 207° |
| 2026-04-25 20:31 | -29.47965 | 152.20847 | 34021 ft | 354 kts | 207° |
| 2026-04-25 20:32 | -29.52341 | 152.18214 | 34133 ft | 355 kts | 207° |
| 2026-04-25 20:32 | -29.56704 | 152.15586 | 34172 ft | 357 kts | 207° |
| 2026-04-25 20:33 | -29.61109 | 152.12930 | 34305 ft | 357 kts | 207° |
| 2026-04-25 20:33 | -29.64771 | 152.10720 | 34379 ft | 357 kts | 207° |
| 2026-04-25 20:34 | -29.69967 | 152.07691 | 34471 ft | 358 kts | 201° |
| 2026-04-25 20:34 | -29.74036 | 152.06401 | 34516 ft | 358 kts | 193° |
| 2026-04-25 20:35 | -29.78974 | 152.05150 | 34547 ft | 360 kts | 192° |
| 2026-04-25 20:35 | -29.83862 | 152.03901 | 34632 ft | 360 kts | 193° |
| 2026-04-25 20:36 | -29.88748 | 152.02634 | 34705 ft | 360 kts | 193° |
| 2026-04-25 20:36 | -29.93634 | 152.01359 | 34762 ft | 360 kts | 193° |
| 2026-04-25 20:37 | -29.98512 | 152.00082 | 34822 ft | 361 kts | 193° |
| 2026-04-25 20:37 | -30.03396 | 151.98802 | 35098 ft | 354 kts | 193° |
| 2026-04-25 20:38 | -30.05773 | 151.98179 | 35358 ft | 348 kts | 193° |
| 2026-04-25 20:38 | -30.08123 | 151.97563 | 35633 ft | 342 kts | 193° |
| 2026-04-25 20:38 | -30.10417 | 151.96960 | 35932 ft | 335 kts | 193° |
| 2026-04-25 20:38 | -30.12677 | 151.96367 | 36113 ft | 332 kts | 193° |
| 2026-04-25 20:39 | -30.14889 | 151.95786 | 36494 ft | 322 kts | 193° |
| 2026-04-25 20:39 | -30.17077 | 151.95211 | 36563 ft | 324 kts | 193° |
| 2026-04-25 20:39 | -30.20750 | 151.94244 | 36599 ft | 327 kts | 193° |
| 2026-04-25 20:40 | -30.25408 | 151.93017 | 36613 ft | 331 kts | 193° |
| 2026-04-25 20:40 | -30.29908 | 151.91832 | 36623 ft | 332 kts | 193° |
| 2026-04-25 20:41 | -30.34262 | 151.90379 | 36623 ft | 318 kts | 201° |
| 2026-04-25 20:41 | -30.38367 | 151.88452 | 36623 ft | 321 kts | 202° |
| 2026-04-25 20:42 | -30.42525 | 151.86478 | 36622 ft | 325 kts | 202° |
| 2026-04-25 20:42 | -30.46734 | 151.84497 | 36629 ft | 328 kts | 201° |
| 2026-04-25 20:43 | -30.50980 | 151.82508 | 36629 ft | 330 kts | 201° |
| 2026-04-25 20:43 | -30.55260 | 151.80507 | 36548 ft | 332 kts | 202° |
| 2026-04-25 20:44 | -30.59523 | 151.78513 | 36616 ft | 331 kts | 201° |
| 2026-04-25 20:44 | -30.63127 | 151.76827 | 36624 ft | 333 kts | 201° |
| 2026-04-25 20:45 | -30.67361 | 151.74845 | 36639 ft | 336 kts | 201° |
| 2026-04-25 20:45 | -30.71710 | 151.72807 | 36580 ft | 336 kts | 201° |
| 2026-04-25 20:46 | -30.76039 | 151.70775 | 36633 ft | 336 kts | 201° |
| 2026-04-25 20:46 | -30.80388 | 151.68733 | 36634 ft | 338 kts | 201° |
| 2026-04-25 20:47 | -30.84737 | 151.66689 | 36640 ft | 339 kts | 201° |
| 2026-04-25 20:47 | -30.89131 | 151.64622 | 36636 ft | 341 kts | 201° |
| 2026-04-25 20:48 | -30.93580 | 151.62526 | 36419 ft | 349 kts | 202° |
| 2026-04-25 20:48 | -30.98089 | 151.60400 | 36392 ft | 350 kts | 202° |
| 2026-04-25 20:49 | -31.02608 | 151.58268 | 36394 ft | 351 kts | 202° |
| 2026-04-25 20:49 | -31.06341 | 151.56505 | 36394 ft | 351 kts | 202° |
| 2026-04-25 20:50 | -31.10785 | 151.54403 | 36393 ft | 351 kts | 202° |
| 2026-04-25 20:50 | -31.15293 | 151.52269 | 36395 ft | 352 kts | 201° |
| 2026-04-25 20:51 | -31.19828 | 151.50121 | 36399 ft | 352 kts | 202° |
| 2026-04-25 20:51 | -31.22101 | 151.49043 | 36285 ft | 352 kts | 202° |
| 2026-04-25 20:51 | -31.24361 | 151.47970 | 36365 ft | 349 kts | 201° |
| 2026-04-25 20:52 | -31.28102 | 151.46194 | 36395 ft | 349 kts | 202° |
| 2026-04-25 20:52 | -31.33333 | 151.43708 | 36401 ft | 350 kts | 202° |
| 2026-04-25 20:53 | -31.37868 | 151.41550 | 36400 ft | 351 kts | 201° |
| 2026-04-25 20:53 | -31.40148 | 151.40484 | 36209 ft | 353 kts | 201° |
| 2026-04-25 20:53 | -31.42445 | 151.39454 | 35811 ft | 354 kts | 200° |
| 2026-04-25 20:54 | -31.44710 | 151.38452 | 35609 ft | 341 kts | 200° |
| 2026-04-25 20:54 | -31.46901 | 151.37485 | 35327 ft | 332 kts | 200° |
| 2026-04-25 20:54 | -31.49040 | 151.36539 | 35075 ft | 326 kts | 200° |
| 2026-04-25 20:54 | -31.50328 | 151.35968 | 34925 ft | 325 kts | 200° |
| 2026-04-25 20:55 | -31.52408 | 151.35043 | 34682 ft | 323 kts | 200° |
| 2026-04-25 20:55 | -31.54501 | 151.34111 | 34428 ft | 321 kts | 200° |
| 2026-04-25 20:55 | -31.56590 | 151.33179 | 34135 ft | 321 kts | 200° |
| 2026-04-25 20:55 | -31.58672 | 151.32250 | 33857 ft | 320 kts | 200° |
| 2026-04-25 20:56 | -31.60768 | 151.31304 | 33598 ft | 324 kts | 200° |
| 2026-04-25 20:56 | -31.62855 | 151.30361 | 33338 ft | 328 kts | 200° |
| 2026-04-25 20:56 | -31.65000 | 151.29395 | 33078 ft | 332 kts | 200° |
| 2026-04-25 20:56 | -31.67174 | 151.28419 | 32795 ft | 336 kts | 200° |
| 2026-04-25 20:57 | -31.69371 | 151.27434 | 32545 ft | 340 kts | 200° |
| 2026-04-25 20:57 | -31.71590 | 151.26439 | 32268 ft | 344 kts | 200° |
| 2026-04-25 20:57 | -31.73844 | 151.25429 | 31988 ft | 347 kts | 200° |
| 2026-04-25 20:57 | -31.76113 | 151.24411 | 31709 ft | 351 kts | 200° |
| 2026-04-25 20:58 | -31.78406 | 151.23382 | 31427 ft | 354 kts | 200° |
| 2026-04-25 20:58 | -31.80735 | 151.22353 | 31254 ft | 361 kts | 199° |
| 2026-04-25 20:58 | -31.85471 | 151.20239 | 31274 ft | 366 kts | 199° |
| 2026-04-25 20:59 | -31.90216 | 151.18097 | 31271 ft | 368 kts | 199° |
| 2026-04-25 20:59 | -31.94064 | 151.16362 | 31166 ft | 353 kts | 199° |
| 2026-04-25 21:00 | -31.96247 | 151.15379 | 31040 ft | 335 kts | 199° |
| 2026-04-25 21:00 | -31.96974 | 151.15053 | 31007 ft | 330 kts | 199° |
| 2026-04-25 21:00 | -32.02518 | 151.12613 | 30890 ft | 315 kts | 199° |
| 2026-04-25 21:01 | -32.04563 | 151.11679 | 30887 ft | 316 kts | 199° |
| 2026-04-25 21:01 | -32.08669 | 151.09818 | 30904 ft | 319 kts | 199° |
| 2026-04-25 21:02 | -32.12839 | 151.07940 | 30886 ft | 319 kts | 199° |
| 2026-04-25 21:02 | -32.14895 | 151.07015 | 30592 ft | 313 kts | 199° |
| 2026-04-25 21:02 | -32.16904 | 151.06110 | 30335 ft | 304 kts | 199° |
| 2026-04-25 21:02 | -32.18868 | 151.05225 | 30052 ft | 301 kts | 199° |
| 2026-04-25 21:03 | -32.20828 | 151.04343 | 29785 ft | 302 kts | 199° |
| 2026-04-25 21:03 | -32.22768 | 151.03470 | 29501 ft | 303 kts | 199° |
| 2026-04-25 21:03 | -32.24745 | 151.02579 | 29236 ft | 303 kts | 199° |
| 2026-04-25 21:03 | -32.26719 | 151.01689 | 28966 ft | 304 kts | 199° |
| 2026-04-25 21:04 | -32.28697 | 151.00796 | 28694 ft | 304 kts | 199° |
| 2026-04-25 21:04 | -32.30668 | 150.99906 | 28410 ft | 304 kts | 199° |
| 2026-04-25 21:04 | -32.32645 | 150.99014 | 28104 ft | 304 kts | 199° |
| 2026-04-25 21:04 | -32.34044 | 150.98382 | 27883 ft | 304 kts | 199° |
| 2026-04-25 21:05 | -32.36004 | 150.97495 | 27573 ft | 298 kts | 199° |
| 2026-04-25 21:05 | -32.37927 | 150.96625 | 27265 ft | 293 kts | 199° |
| 2026-04-25 21:05 | -32.39803 | 150.95775 | 26863 ft | 286 kts | 199° |
| 2026-04-25 21:05 | -32.41652 | 150.94938 | 26292 ft | 284 kts | 198° |
| 2026-04-25 21:06 | -32.43482 | 150.94110 | 25618 ft | 287 kts | 198° |
| 2026-04-25 21:06 | -32.45360 | 150.93260 | 25011 ft | 287 kts | 198° |
| 2026-04-25 21:06 | -32.47163 | 150.92441 | 24904 ft | 267 kts | 198° |
| 2026-04-25 21:06 | -32.47743 | 150.92177 | 24861 ft | 262 kts | 198° |
| 2026-04-25 21:07 | -32.50627 | 150.91422 | 24680 ft | 258 kts | 178° |
| 2026-04-25 21:07 | -32.52435 | 150.91571 | 24698 ft | 263 kts | 170° |
| 2026-04-25 21:07 | -32.54271 | 150.91895 | 24720 ft | 270 kts | 168° |
| 2026-04-25 21:07 | -32.56148 | 150.92256 | 24730 ft | 276 kts | 168° |
| 2026-04-25 21:08 | -32.58060 | 150.92623 | 24738 ft | 281 kts | 169° |
| 2026-04-25 21:08 | -32.60013 | 150.92992 | 24752 ft | 287 kts | 169° |
| 2026-04-25 21:08 | -32.61999 | 150.93360 | 24760 ft | 291 kts | 169° |
| 2026-04-25 21:08 | -32.64027 | 150.93731 | 24733 ft | 297 kts | 169° |
| 2026-04-25 21:09 | -32.68123 | 150.94474 | 24705 ft | 301 kts | 169° |
| 2026-04-25 21:09 | -32.70225 | 150.94854 | 24373 ft | 314 kts | 169° |
| 2026-04-25 21:09 | -32.71566 | 150.95097 | 23922 ft | 329 kts | 169° |
| 2026-04-25 21:10 | -32.73891 | 150.95516 | 23450 ft | 340 kts | 169° |
| 2026-04-25 21:10 | -32.76223 | 150.95936 | 23485 ft | 334 kts | 169° |
| 2026-04-25 21:10 | -32.78514 | 150.96348 | 23466 ft | 332 kts | 169° |
| 2026-04-25 21:10 | -32.80796 | 150.96755 | 23445 ft | 330 kts | 169° |
| 2026-04-25 21:11 | -32.83071 | 150.97159 | 23254 ft | 333 kts | 170° |
| 2026-04-25 21:11 | -32.85378 | 150.97568 | 23024 ft | 336 kts | 170° |
| 2026-04-25 21:11 | -32.87676 | 150.97976 | 22922 ft | 338 kts | 170° |
| 2026-04-25 21:11 | -32.90012 | 150.98390 | 22936 ft | 340 kts | 170° |
| 2026-04-25 21:12 | -32.92369 | 150.98809 | 22232 ft | 341 kts | 170° |
| 2026-04-25 21:12 | -32.94689 | 150.99221 | 21596 ft | 334 kts | 170° |
| 2026-04-25 21:12 | -32.96969 | 150.99626 | 20961 ft | 328 kts | 170° |
| 2026-04-25 21:12 | -32.97729 | 150.99761 | 20784 ft | 326 kts | 170° |
| 2026-04-25 21:13 | -33.01418 | 151.00417 | 19981 ft | 321 kts | 170° |
| 2026-04-25 21:13 | -33.02881 | 151.00678 | 19672 ft | 321 kts | 170° |
| 2026-04-25 21:13 | -33.05824 | 151.01204 | 19048 ft | 322 kts | 170° |
| 2026-04-25 21:13 | -33.08031 | 151.01598 | 18555 ft | 318 kts | 170° |
| 2026-04-25 21:14 | -33.09462 | 151.01853 | 18391 ft | 306 kts | 170° |
| 2026-04-25 21:14 | -33.11503 | 151.02216 | 18263 ft | 293 kts | 170° |
| 2026-04-25 21:14 | -33.13569 | 151.02586 | 18291 ft | 307 kts | 170° |
| 2026-04-25 21:14 | -33.15232 | 151.02884 | 18306 ft | 317 kts | 170° |
| 2026-04-25 21:15 | -33.17085 | 151.03216 | 18494 ft | 321 kts | 170° |
| 2026-04-25 21:15 | -33.19328 | 151.03617 | 18637 ft | 327 kts | 170° |
| 2026-04-25 21:15 | -33.21586 | 151.04021 | 18859 ft | 330 kts | 170° |
| 2026-04-25 21:15 | -33.23835 | 151.04423 | 18917 ft | 321 kts | 170° |
| 2026-04-25 21:16 | -33.26030 | 151.04833 | 18610 ft | 318 kts | 169° |
| 2026-04-25 21:16 | -33.28217 | 151.05254 | 18201 ft | 318 kts | 169° |
| 2026-04-25 21:16 | -33.30399 | 151.05675 | 17824 ft | 317 kts | 169° |
| 2026-04-25 21:16 | -33.32573 | 151.06093 | 17479 ft | 315 kts | 169° |
| 2026-04-25 21:17 | -33.34705 | 151.06502 | 17153 ft | 314 kts | 169° |
| 2026-04-25 21:17 | -33.36886 | 151.06919 | 16814 ft | 312 kts | 169° |
| 2026-04-25 21:17 | -33.39026 | 151.07329 | 16503 ft | 311 kts | 169° |
| 2026-04-25 21:17 | -33.41133 | 151.07733 | 16193 ft | 309 kts | 169° |
| 2026-04-25 21:18 | -33.43263 | 151.08142 | 15885 ft | 308 kts | 169° |
| 2026-04-25 21:18 | -33.45383 | 151.08550 | 15594 ft | 307 kts | 169° |
| 2026-04-25 21:18 | -33.47483 | 151.08953 | 15314 ft | 306 kts | 169° |
| 2026-04-25 21:18 | -33.49587 | 151.09358 | 15043 ft | 305 kts | 169° |
| 2026-04-25 21:19 | -33.51680 | 151.09761 | 14789 ft | 304 kts | 169° |
| 2026-04-25 21:19 | -33.53761 | 151.10162 | 14536 ft | 302 kts | 169° |
| 2026-04-25 21:19 | -33.55837 | 151.10562 | 14286 ft | 302 kts | 169° |
| 2026-04-25 21:19 | -33.57340 | 151.10851 | 14117 ft | 301 kts | 169° |
| 2026-04-25 21:20 | -33.59407 | 151.11250 | 13858 ft | 300 kts | 169° |
| 2026-04-25 21:20 | -33.60774 | 151.11513 | 13689 ft | 299 kts | 169° |
| 2026-04-25 21:20 | -33.63522 | 151.12051 | 13356 ft | 298 kts | 169° |
| 2026-04-25 21:20 | -33.65568 | 151.12456 | 13103 ft | 296 kts | 169° |
| 2026-04-25 21:21 | -33.67593 | 151.12856 | 12687 ft | 295 kts | 170° |
| 2026-04-25 21:21 | -33.69627 | 151.13258 | 12261 ft | 296 kts | 170° |
| 2026-04-25 21:21 | -33.71656 | 151.13656 | 11892 ft | 295 kts | 170° |
| 2026-04-25 21:21 | -33.73667 | 151.14045 | 11561 ft | 293 kts | 170° |
| 2026-04-25 21:22 | -33.75644 | 151.14428 | 11221 ft | 292 kts | 170° |
| 2026-04-25 21:22 | -33.77635 | 151.14813 | 10909 ft | 290 kts | 170° |
| 2026-04-25 21:22 | -33.79627 | 151.15199 | 10601 ft | 289 kts | 170° |
| 2026-04-25 21:22 | -33.81627 | 151.15382 | 10258 ft | 290 kts | 186° |
| 2026-04-25 21:23 | -33.83600 | 151.14868 | 9970 ft | 288 kts | 193° |
| 2026-04-25 21:23 | -33.85536 | 151.14273 | 9642 ft | 288 kts | 193° |
| 2026-04-25 21:23 | -33.87477 | 151.13683 | 9330 ft | 287 kts | 193° |
| 2026-04-25 21:23 | -33.89416 | 151.13108 | 8985 ft | 288 kts | 193° |
| 2026-04-25 21:24 | -33.91357 | 151.12542 | 8730 ft | 286 kts | 193° |
| 2026-04-25 21:24 | -33.93288 | 151.11983 | 8458 ft | 285 kts | 193° |
| 2026-04-25 21:24 | -33.95189 | 151.11435 | 8206 ft | 285 kts | 193° |
| 2026-04-25 21:24 | -33.97116 | 151.10879 | 7942 ft | 285 kts | 193° |
| 2026-04-25 21:25 | -33.99043 | 151.10322 | 7717 ft | 284 kts | 193° |
| 2026-04-25 21:25 | -34.00941 | 151.09774 | 7647 ft | 277 kts | 193° |
| 2026-04-25 21:25 | -34.02803 | 151.09235 | 7614 ft | 272 kts | 193° |
| 2026-04-25 21:25 | -34.04625 | 151.08708 | 7570 ft | 268 kts | 193° |
| 2026-04-25 21:26 | -34.06426 | 151.08187 | 7553 ft | 264 kts | 193° |
| 2026-04-25 21:26 | -34.08219 | 151.07809 | 7510 ft | 260 kts | 178° |
| 2026-04-25 21:26 | -34.09981 | 151.08185 | 7503 ft | 256 kts | 166° |
| 2026-04-25 21:26 | -34.11712 | 151.08661 | 7473 ft | 253 kts | 167° |
| 2026-04-25 21:27 | -34.13454 | 151.09128 | 7210 ft | 262 kts | 167° |
| 2026-04-25 21:27 | -34.15267 | 151.09605 | 6871 ft | 271 kts | 167° |
| 2026-04-25 21:27 | -34.17136 | 151.10092 | 6496 ft | 277 kts | 167° |
| 2026-04-25 21:27 | -34.18992 | 151.10574 | 6394 ft | 273 kts | 167° |
| 2026-04-25 21:28 | -34.20777 | 151.11269 | 6330 ft | 271 kts | 148° |
| 2026-04-25 21:28 | -34.22067 | 151.12885 | 6336 ft | 269 kts | 118° |
| 2026-04-25 21:28 | -34.22571 | 151.15037 | 6338 ft | 267 kts | 90° |
| 2026-04-25 21:28 | -34.22222 | 151.17217 | 6344 ft | 265 kts | 65° |
| 2026-04-25 21:29 | -34.21188 | 151.19006 | 6306 ft | 258 kts | 45° |
| 2026-04-25 21:29 | -34.19894 | 151.20497 | 6269 ft | 256 kts | 42° |
| 2026-04-25 21:29 | -34.18587 | 151.21971 | 6056 ft | 260 kts | 41° |
| 2026-04-25 21:29 | -34.17041 | 151.23072 | 5615 ft | 258 kts | 12° |
| 2026-04-25 21:30 | -34.15340 | 151.22978 | 5246 ft | 239 kts | 348° |
| 2026-04-25 21:30 | -34.13790 | 151.22591 | 5335 ft | 213 kts | 349° |
| 2026-04-25 21:30 | -34.12374 | 151.22226 | 5092 ft | 209 kts | 351° |
| 2026-04-25 21:30 | -34.11413 | 151.22094 | 4969 ft | 202 kts | 356° |
| 2026-04-25 21:31 | -34.09596 | 151.21809 | 4644 ft | 197 kts | 355° |
| 2026-04-25 21:31 | -34.08277 | 151.21626 | 4488 ft | 185 kts | 353° |
| 2026-04-25 21:31 | -34.07044 | 151.21252 | 4200 ft | 183 kts | 345° |
| 2026-04-25 21:31 | -34.05791 | 151.20823 | 3665 ft | 193 kts | 348° |
| 2026-04-25 21:32 | -34.04474 | 151.20425 | 3121 ft | 197 kts | 348° |
| 2026-04-25 21:32 | -34.03138 | 151.20050 | 2560 ft | 199 kts | 349° |
| 2026-04-25 21:32 | -34.01795 | 151.19639 | 2039 ft | 195 kts | 346° |
| 2026-04-25 21:32 | -34.00494 | 151.19262 | 1507 ft | 189 kts | 347° |
| 2026-04-25 21:33 | -33.99244 | 151.18930 | 1014 ft | 178 kts | 346° |
| 2026-04-25 21:33 | -33.98058 | 151.18598 | 571 ft | 172 kts | 346° |
| 2026-04-25 21:33 | -33.96943 | 151.18249 | 241 ft | 159 kts | 343° |
| 2026-04-25 21:33 | -33.95914 | 151.17933 | 43 ft | 141 kts | 356° |
| 2026-04-25 21:34 | -33.95101 | 151.17721 | 26 ft | 89 kts | 348° |
| 2026-04-25 21:34 | -33.94749 | 151.17639 | 28 ft | 35 kts | 354° |
| 2026-04-25 21:34 | -33.94579 | 151.17662 | 28 ft | 19 kts | 13° |
| 2026-04-25 21:34 | -33.94495 | 151.17688 | 29 ft | 8 kts | 20° |
| 2026-04-25 21:35 | -33.94440 | 151.17712 | 29 ft | 8 kts | 20° |
| 2026-04-25 21:35 | -33.94386 | 151.17735 | 29 ft | 9 kts | 12° |
| 2026-04-25 21:35 | -33.94324 | 151.17729 | 29 ft | 10 kts | 355° |
| 2026-04-25 21:35 | -33.94255 | 151.17709 | 28 ft | 11 kts | 347° |
| 2026-04-25 21:36 | -33.94178 | 151.17687 | 28 ft | 12 kts | 346° |
| 2026-04-25 21:36 | -33.94091 | 151.17660 | 27 ft | 14 kts | 345° |
| 2026-04-25 21:36 | -33.93993 | 151.17635 | 27 ft | 15 kts | 349° |
| 2026-04-25 21:36 | -33.93896 | 151.17610 | 28 ft | 14 kts | 349° |
| 2026-04-25 21:37 | -33.93800 | 151.17585 | 28 ft | 15 kts | 347° |
| 2026-04-25 21:37 | -33.93733 | 151.17567 | 28 ft | 15 kts | 347° |
| 2026-04-25 21:37 | -33.93589 | 151.17527 | 28 ft | 17 kts | 347° |
| 2026-04-25 21:37 | -33.93483 | 151.17502 | 29 ft | 14 kts | 350° |
| 2026-04-25 21:38 | -33.93409 | 151.17508 | 29 ft | 10 kts | 10° |
| 2026-04-25 21:38 | -33.93338 | 151.17494 | 29 ft | 11 kts | 346° |
| 2026-04-25 21:38 | -33.93261 | 151.17473 | 29 ft | 12 kts | 348° |
| 2026-04-25 21:38 | -33.93174 | 151.17450 | 29 ft | 13 kts | 348° |
| 2026-04-25 21:39 | -33.93117 | 151.17435 | 29 ft | 3 kts | 347° |
| 2026-04-25 21:39 | -33.93095 | 151.17429 | 29 ft | 4 kts | 347° |
| 2026-04-25 21:39 | -33.93058 | 151.17421 | 29 ft | 7 kts | 348° |
| 2026-04-25 21:39 | -33.93008 | 151.17414 | 28 ft | 6 kts | 20° |
| 2026-04-25 21:40 | -33.92988 | 151.17461 | 29 ft | 8 kts | 92° |
| 2026-04-25 21:40 | -33.92996 | 151.17540 | 29 ft | 11 kts | 101° |
| 2026-04-25 21:40 | -33.93013 | 151.17639 | 29 ft | 13 kts | 102° |
| 2026-04-25 21:40 | -33.93028 | 151.17693 | 29 ft | 7 kts | 116° |
| 2026-04-25 21:41 | -33.93053 | 151.17755 | 29 ft | 9 kts | 111° |
| 2026-04-25 21:41 | -33.93067 | 151.17830 | 29 ft | 10 kts | 99° |
| 2026-04-25 21:41 | -33.93079 | 151.17915 | 29 ft | 11 kts | 99° |
| 2026-04-25 21:41 | -33.93090 | 151.17997 | 29 ft | 9 kts | 100° |
| 2026-04-25 21:42 | -33.93116 | 151.18039 | 29 ft | 6 kts | 172° |
| 2026-04-25 21:42 | -33.93138 | 151.18032 | 29 ft | 4 kts | 194° |
| 2026-04-25 21:42 | -33.93167 | 151.18025 | 29 ft | 5 kts | 191° |
| 2026-04-25 21:42 | -33.93172 | 151.18023 | 29 ft | 1 kts | 191° |